sensor_id;sensor_type;location;lat;lon;timestamp;P1;durP1;ratioP1;P2;durP2;ratioP2
57627;SDS011;43451;49.060;10.616;2022-12-11T00:01:53;22.90;;;12.07;;
57627;SDS011;43451;49.060;10.616;2022-12-11T00:04:19;24.65;;;12.57;;
57627;SDS011;43451;49.060;10.616;2022-12-11T00:06:44;22.98;;;11.88;;
57627;SDS011;43451;49.060;10.616;2022-12-11T00:09:10;22.38;;;11.82;;
57627;SDS011;43451;49.060;10.616;2022-12-11T00:11:36;24.38;;;12.15;;
57627;SDS011;43451;49.060;10.616;2022-12-11T00:14:01;23.85;;;12.15;;
57627;SDS011;43451;49.060;10.616;2022-12-11T00:16:27;23.17;;;11.85;;
57627;SDS011;43451;49.060;10.616;2022-12-11T00:18:52;25.67;;;12.75;;
57627;SDS011;43451;49.060;10.616;2022-12-11T00:21:18;25.77;;;13.68;;
57627;SDS011;43451;49.060;10.616;2022-12-11T00:23:44;24.80;;;13.13;;
57627;SDS011;43451;49.060;10.616;2022-12-11T00:26:12;25.23;;;13.18;;
57627;SDS011;43451;49.060;10.616;2022-12-11T00:28:39;24.40;;;13.43;;
57627;SDS011;43451;49.060;10.616;2022-12-11T00:31:05;29.48;;;14.57;;
57627;SDS011;43451;49.060;10.616;2022-12-11T00:33:33;30.50;;;14.10;;
57627;SDS011;43451;49.060;10.616;2022-12-11T00:35:59;27.67;;;13.85;;
57627;SDS011;43451;49.060;10.616;2022-12-11T00:38:25;28.55;;;13.93;;
57627;SDS011;43451;49.060;10.616;2022-12-11T00:40:50;28.65;;;14.15;;
57627;SDS011;43451;49.060;10.616;2022-12-11T00:43:16;28.05;;;14.13;;
57627;SDS011;43451;49.060;10.616;2022-12-11T00:45:42;31.35;;;15.55;;
57627;SDS011;43451;49.060;10.616;2022-12-11T00:48:10;32.40;;;15.52;;
57627;SDS011;43451;49.060;10.616;2022-12-11T00:50:36;31.33;;;15.43;;
57627;SDS011;43451;49.060;10.616;2022-12-11T00:53:03;34.35;;;15.50;;
57627;SDS011;43451;49.060;10.616;2022-12-11T00:55:29;34.85;;;16.27;;
57627;SDS011;43451;49.060;10.616;2022-12-11T00:57:55;32.40;;;15.35;;
57627;SDS011;43451;49.060;10.616;2022-12-11T01:00:22;30.53;;;14.83;;
57627;SDS011;43451;49.060;10.616;2022-12-11T01:02:48;30.98;;;14.77;;
57627;SDS011;43451;49.060;10.616;2022-12-11T01:05:14;32.88;;;15.77;;
57627;SDS011;43451;49.060;10.616;2022-12-11T01:07:40;30.75;;;15.15;;
57627;SDS011;43451;49.060;10.616;2022-12-11T01:10:05;30.55;;;14.65;;
57627;SDS011;43451;49.060;10.616;2022-12-11T01:12:51;32.45;;;15.60;;
57627;SDS011;43451;49.060;10.616;2022-12-11T01:15:18;32.75;;;15.73;;
57627;SDS011;43451;49.060;10.616;2022-12-11T01:17:44;33.67;;;15.93;;
57627;SDS011;43451;49.060;10.616;2022-12-11T01:20:10;30.13;;;14.68;;
57627;SDS011;43451;49.060;10.616;2022-12-11T01:22:36;34.38;;;15.98;;
57627;SDS011;43451;49.060;10.616;2022-12-11T01:25:01;33.47;;;16.17;;
57627;SDS011;43451;49.060;10.616;2022-12-11T01:27:27;33.83;;;15.13;;
57627;SDS011;43451;49.060;10.616;2022-12-11T01:29:52;30.75;;;15.52;;
57627;SDS011;43451;49.060;10.616;2022-12-11T01:32:18;31.25;;;15.40;;
57627;SDS011;43451;49.060;10.616;2022-12-11T01:34:43;30.85;;;15.43;;
57627;SDS011;43451;49.060;10.616;2022-12-11T01:37:09;30.80;;;15.23;;
57627;SDS011;43451;49.060;10.616;2022-12-11T01:39:34;31.67;;;15.38;;
57627;SDS011;43451;49.060;10.616;2022-12-11T01:42:00;31.58;;;15.77;;
57627;SDS011;43451;49.060;10.616;2022-12-11T01:46:51;29.02;;;14.60;;
57627;SDS011;43451;49.060;10.616;2022-12-11T01:49:17;29.70;;;14.13;;
57627;SDS011;43451;49.060;10.616;2022-12-11T01:51:56;31.95;;;15.80;;
57627;SDS011;43451;49.060;10.616;2022-12-11T01:54:27;31.48;;;14.95;;
57627;SDS011;43451;49.060;10.616;2022-12-11T01:56:54;31.45;;;15.07;;
57627;SDS011;43451;49.060;10.616;2022-12-11T01:59:25;29.08;;;14.48;;
57627;SDS011;43451;49.060;10.616;2022-12-11T02:01:58;30.60;;;14.73;;
57627;SDS011;43451;49.060;10.616;2022-12-11T02:04:27;29.52;;;14.13;;
57627;SDS011;43451;49.060;10.616;2022-12-11T02:06:53;29.23;;;14.65;;
57627;SDS011;43451;49.060;10.616;2022-12-11T02:09:21;29.55;;;14.60;;
57627;SDS011;43451;49.060;10.616;2022-12-11T02:14:31;27.80;;;14.77;;
57627;SDS011;43451;49.060;10.616;2022-12-11T02:16:59;29.17;;;14.45;;
57627;SDS011;43451;49.060;10.616;2022-12-11T02:19:44;30.05;;;14.82;;
57627;SDS011;43451;49.060;10.616;2022-12-11T02:22:13;28.38;;;13.63;;
57627;SDS011;43451;49.060;10.616;2022-12-11T02:30:27;25.33;;;13.02;;
57627;SDS011;43451;49.060;10.616;2022-12-11T02:32:54;23.88;;;12.57;;
57627;SDS011;43451;49.060;10.616;2022-12-11T02:35:25;24.45;;;12.38;;
57627;SDS011;43451;49.060;10.616;2022-12-11T02:37:57;24.38;;;11.80;;
57627;SDS011;43451;49.060;10.616;2022-12-11T02:40:29;23.40;;;12.10;;
57627;SDS011;43451;49.060;10.616;2022-12-11T02:42:58;23.88;;;12.65;;
57627;SDS011;43451;49.060;10.616;2022-12-11T02:45:26;23.38;;;12.65;;
57627;SDS011;43451;49.060;10.616;2022-12-11T02:47:53;21.25;;;11.48;;
57627;SDS011;43451;49.060;10.616;2022-12-11T02:50:21;24.35;;;12.32;;
57627;SDS011;43451;49.060;10.616;2022-12-11T02:52:48;24.60;;;12.18;;
57627;SDS011;43451;49.060;10.616;2022-12-11T02:55:17;25.05;;;12.35;;
57627;SDS011;43451;49.060;10.616;2022-12-11T02:57:48;22.83;;;11.68;;
57627;SDS011;43451;49.060;10.616;2022-12-11T03:00:16;24.90;;;12.50;;
57627;SDS011;43451;49.060;10.616;2022-12-11T03:02:43;24.45;;;12.65;;
57627;SDS011;43451;49.060;10.616;2022-12-11T03:05:10;22.73;;;12.18;;
57627;SDS011;43451;49.060;10.616;2022-12-11T03:07:38;22.77;;;11.77;;
57627;SDS011;43451;49.060;10.616;2022-12-11T03:10:06;22.45;;;12.07;;
57627;SDS011;43451;49.060;10.616;2022-12-11T03:12:35;22.77;;;11.73;;
57627;SDS011;43451;49.060;10.616;2022-12-11T03:15:06;21.05;;;11.00;;
57627;SDS011;43451;49.060;10.616;2022-12-11T03:23:08;21.10;;;11.40;;
57627;SDS011;43451;49.060;10.616;2022-12-11T03:25:51;22.30;;;11.60;;
57627;SDS011;43451;49.060;10.616;2022-12-11T03:31:10;20.65;;;10.82;;
57627;SDS011;43451;49.060;10.616;2022-12-11T03:33:39;22.60;;;11.70;;
57627;SDS011;43451;49.060;10.616;2022-12-11T03:36:18;22.55;;;11.48;;
57627;SDS011;43451;49.060;10.616;2022-12-11T03:38:49;21.90;;;11.35;;
57627;SDS011;43451;49.060;10.616;2022-12-11T03:41:19;21.83;;;11.13;;
57627;SDS011;43451;49.060;10.616;2022-12-11T03:43:49;22.60;;;12.48;;
57627;SDS011;43451;49.060;10.616;2022-12-11T03:46:17;22.15;;;11.35;;
57627;SDS011;43451;49.060;10.616;2022-12-11T03:48:47;22.33;;;11.60;;
57627;SDS011;43451;49.060;10.616;2022-12-11T03:51:13;24.42;;;12.73;;
57627;SDS011;43451;49.060;10.616;2022-12-11T03:53:41;22.45;;;11.52;;
57627;SDS011;43451;49.060;10.616;2022-12-11T03:56:08;22.73;;;12.23;;
57627;SDS011;43451;49.060;10.616;2022-12-11T04:01:01;28.48;;;11.95;;
57627;SDS011;43451;49.060;10.616;2022-12-11T04:03:27;22.38;;;11.15;;
57627;SDS011;43451;49.060;10.616;2022-12-11T04:05:53;23.92;;;11.85;;
57627;SDS011;43451;49.060;10.616;2022-12-11T04:08:20;22.88;;;11.65;;
57627;SDS011;43451;49.060;10.616;2022-12-11T04:10:46;21.70;;;11.38;;
57627;SDS011;43451;49.060;10.616;2022-12-11T04:13:12;24.50;;;12.50;;
57627;SDS011;43451;49.060;10.616;2022-12-11T04:15:38;21.77;;;12.00;;
57627;SDS011;43451;49.060;10.616;2022-12-11T04:18:05;22.10;;;11.73;;
57627;SDS011;43451;49.060;10.616;2022-12-11T04:20:51;22.70;;;12.48;;
57627;SDS011;43451;49.060;10.616;2022-12-11T04:23:36;22.80;;;11.60;;
57627;SDS011;43451;49.060;10.616;2022-12-11T04:26:20;23.20;;;11.88;;
57627;SDS011;43451;49.060;10.616;2022-12-11T04:28:46;22.98;;;12.23;;
57627;SDS011;43451;49.060;10.616;2022-12-11T04:31:13;23.52;;;12.02;;
57627;SDS011;43451;49.060;10.616;2022-12-11T04:33:41;25.08;;;11.73;;
57627;SDS011;43451;49.060;10.616;2022-12-11T04:36:07;24.30;;;12.07;;
57627;SDS011;43451;49.060;10.616;2022-12-11T04:38:33;23.58;;;11.95;;
57627;SDS011;43451;49.060;10.616;2022-12-11T04:41:00;22.08;;;11.45;;
57627;SDS011;43451;49.060;10.616;2022-12-11T04:43:27;23.70;;;11.40;;
57627;SDS011;43451;49.060;10.616;2022-12-11T04:46:03;22.52;;;11.43;;
57627;SDS011;43451;49.060;10.616;2022-12-11T04:48:32;20.23;;;10.88;;
57627;SDS011;43451;49.060;10.616;2022-12-11T04:50:57;22.55;;;11.73;;
57627;SDS011;43451;49.060;10.616;2022-12-11T04:53:23;21.67;;;11.65;;
57627;SDS011;43451;49.060;10.616;2022-12-11T04:55:49;21.83;;;11.25;;
57627;SDS011;43451;49.060;10.616;2022-12-11T04:58:15;21.60;;;11.45;;
57627;SDS011;43451;49.060;10.616;2022-12-11T05:00:40;20.42;;;11.48;;
57627;SDS011;43451;49.060;10.616;2022-12-11T05:03:06;21.75;;;11.73;;
57627;SDS011;43451;49.060;10.616;2022-12-11T05:05:32;25.27;;;11.95;;
57627;SDS011;43451;49.060;10.616;2022-12-11T05:07:58;25.30;;;12.27;;
57627;SDS011;43451;49.060;10.616;2022-12-11T05:10:23;21.90;;;11.55;;
57627;SDS011;43451;49.060;10.616;2022-12-11T05:12:49;27.15;;;12.38;;
57627;SDS011;43451;49.060;10.616;2022-12-11T05:15:14;23.20;;;12.25;;
57627;SDS011;43451;49.060;10.616;2022-12-11T05:17:40;24.15;;;12.80;;
57627;SDS011;43451;49.060;10.616;2022-12-11T05:20:05;27.17;;;13.63;;
57627;SDS011;43451;49.060;10.616;2022-12-11T05:22:31;24.45;;;12.88;;
57627;SDS011;43451;49.060;10.616;2022-12-11T05:24:57;25.85;;;12.98;;
57627;SDS011;43451;49.060;10.616;2022-12-11T05:27:22;23.13;;;11.77;;
57627;SDS011;43451;49.060;10.616;2022-12-11T05:29:48;22.48;;;12.27;;
57627;SDS011;43451;49.060;10.616;2022-12-11T05:32:13;22.38;;;11.55;;
57627;SDS011;43451;49.060;10.616;2022-12-11T05:34:39;22.75;;;11.65;;
57627;SDS011;43451;49.060;10.616;2022-12-11T05:37:04;19.92;;;10.70;;
57627;SDS011;43451;49.060;10.616;2022-12-11T05:39:31;26.70;;;11.38;;
57627;SDS011;43451;49.060;10.616;2022-12-11T05:41:56;21.58;;;10.60;;
57627;SDS011;43451;49.060;10.616;2022-12-11T05:44:22;19.55;;;10.57;;
57627;SDS011;43451;49.060;10.616;2022-12-11T05:46:47;21.60;;;10.65;;
57627;SDS011;43451;49.060;10.616;2022-12-11T05:49:13;22.38;;;10.93;;
57627;SDS011;43451;49.060;10.616;2022-12-11T05:51:40;18.08;;;9.27;;
57627;SDS011;43451;49.060;10.616;2022-12-11T05:54:07;18.13;;;10.15;;
57627;SDS011;43451;49.060;10.616;2022-12-11T05:56:33;17.15;;;9.85;;
57627;SDS011;43451;49.060;10.616;2022-12-11T05:59:00;16.80;;;9.90;;
57627;SDS011;43451;49.060;10.616;2022-12-11T06:01:31;18.00;;;9.38;;
57627;SDS011;43451;49.060;10.616;2022-12-11T06:03:59;18.83;;;9.73;;
57627;SDS011;43451;49.060;10.616;2022-12-11T06:06:25;19.55;;;10.43;;
57627;SDS011;43451;49.060;10.616;2022-12-11T06:08:52;20.15;;;10.48;;
57627;SDS011;43451;49.060;10.616;2022-12-11T06:11:19;20.13;;;10.67;;
57627;SDS011;43451;49.060;10.616;2022-12-11T06:13:48;20.00;;;10.73;;
57627;SDS011;43451;49.060;10.616;2022-12-11T06:16:14;18.55;;;10.68;;
57627;SDS011;43451;49.060;10.616;2022-12-11T06:18:41;19.20;;;10.77;;
57627;SDS011;43451;49.060;10.616;2022-12-11T06:23:38;18.90;;;10.23;;
57627;SDS011;43451;49.060;10.616;2022-12-11T06:26:05;21.90;;;10.98;;
57627;SDS011;43451;49.060;10.616;2022-12-11T06:28:31;22.70;;;11.25;;
57627;SDS011;43451;49.060;10.616;2022-12-11T06:31:00;19.58;;;10.35;;
57627;SDS011;43451;49.060;10.616;2022-12-11T06:33:26;22.40;;;11.30;;
57627;SDS011;43451;49.060;10.616;2022-12-11T06:35:51;22.70;;;11.52;;
57627;SDS011;43451;49.060;10.616;2022-12-11T06:38:17;20.17;;;10.70;;
57627;SDS011;43451;49.060;10.616;2022-12-11T06:40:43;21.30;;;11.13;;
57627;SDS011;43451;49.060;10.616;2022-12-11T06:43:08;21.98;;;11.27;;
57627;SDS011;43451;49.060;10.616;2022-12-11T06:45:37;22.60;;;11.38;;
57627;SDS011;43451;49.060;10.616;2022-12-11T06:48:02;21.52;;;10.80;;
57627;SDS011;43451;49.060;10.616;2022-12-11T06:50:28;21.08;;;10.88;;
57627;SDS011;43451;49.060;10.616;2022-12-11T06:52:54;20.40;;;10.90;;
57627;SDS011;43451;49.060;10.616;2022-12-11T06:55:20;19.90;;;10.98;;
57627;SDS011;43451;49.060;10.616;2022-12-11T06:57:46;20.80;;;10.85;;
57627;SDS011;43451;49.060;10.616;2022-12-11T07:00:11;18.73;;;10.15;;
57627;SDS011;43451;49.060;10.616;2022-12-11T07:02:37;20.15;;;10.38;;
57627;SDS011;43451;49.060;10.616;2022-12-11T07:05:03;19.75;;;11.00;;
57627;SDS011;43451;49.060;10.616;2022-12-11T07:07:29;20.25;;;10.10;;
57627;SDS011;43451;49.060;10.616;2022-12-11T07:09:54;18.92;;;10.27;;
57627;SDS011;43451;49.060;10.616;2022-12-11T07:12:20;18.20;;;9.20;;
57627;SDS011;43451;49.060;10.616;2022-12-11T07:14:45;16.55;;;9.50;;
57627;SDS011;43451;49.060;10.616;2022-12-11T07:17:11;17.88;;;9.48;;
57627;SDS011;43451;49.060;10.616;2022-12-11T07:19:36;15.65;;;8.63;;
57627;SDS011;43451;49.060;10.616;2022-12-11T07:22:02;18.92;;;9.50;;
57627;SDS011;43451;49.060;10.616;2022-12-11T07:24:27;17.08;;;9.20;;
57627;SDS011;43451;49.060;10.616;2022-12-11T07:26:53;16.98;;;8.85;;
57627;SDS011;43451;49.060;10.616;2022-12-11T07:29:18;17.10;;;9.20;;
57627;SDS011;43451;49.060;10.616;2022-12-11T07:31:43;17.95;;;9.68;;
57627;SDS011;43451;49.060;10.616;2022-12-11T07:34:10;17.80;;;9.40;;
57627;SDS011;43451;49.060;10.616;2022-12-11T07:36:36;18.80;;;9.40;;
57627;SDS011;43451;49.060;10.616;2022-12-11T07:39:02;17.67;;;9.65;;
57627;SDS011;43451;49.060;10.616;2022-12-11T07:41:28;18.77;;;9.65;;
57627;SDS011;43451;49.060;10.616;2022-12-11T07:43:56;20.13;;;10.63;;
57627;SDS011;43451;49.060;10.616;2022-12-11T07:46:24;18.48;;;9.98;;
57627;SDS011;43451;49.060;10.616;2022-12-11T07:48:51;20.70;;;10.93;;
57627;SDS011;43451;49.060;10.616;2022-12-11T07:51:18;21.77;;;11.77;;
57627;SDS011;43451;49.060;10.616;2022-12-11T07:53:44;23.35;;;12.30;;
57627;SDS011;43451;49.060;10.616;2022-12-11T07:56:11;23.70;;;12.13;;
57627;SDS011;43451;49.060;10.616;2022-12-11T07:58:36;24.02;;;12.45;;
57627;SDS011;43451;49.060;10.616;2022-12-11T08:01:03;29.38;;;13.05;;
57627;SDS011;43451;49.060;10.616;2022-12-11T08:03:30;24.95;;;12.95;;
57627;SDS011;43451;49.060;10.616;2022-12-11T08:05:55;24.00;;;13.02;;
57627;SDS011;43451;49.060;10.616;2022-12-11T08:08:21;23.95;;;12.57;;
57627;SDS011;43451;49.060;10.616;2022-12-11T08:10:46;22.50;;;12.38;;
57627;SDS011;43451;49.060;10.616;2022-12-11T08:13:11;23.90;;;12.45;;
57627;SDS011;43451;49.060;10.616;2022-12-11T08:15:37;24.83;;;13.02;;
57627;SDS011;43451;49.060;10.616;2022-12-11T08:18:03;22.65;;;12.70;;
57627;SDS011;43451;49.060;10.616;2022-12-11T08:20:29;25.17;;;12.70;;
57627;SDS011;43451;49.060;10.616;2022-12-11T08:22:55;26.33;;;12.95;;
57627;SDS011;43451;49.060;10.616;2022-12-11T08:25:20;24.88;;;12.43;;
57627;SDS011;43451;49.060;10.616;2022-12-11T08:27:46;22.30;;;11.93;;
57627;SDS011;43451;49.060;10.616;2022-12-11T08:30:12;23.63;;;12.85;;
57627;SDS011;43451;49.060;10.616;2022-12-11T08:32:38;23.85;;;12.95;;
57627;SDS011;43451;49.060;10.616;2022-12-11T08:35:03;21.33;;;12.35;;
57627;SDS011;43451;49.060;10.616;2022-12-11T08:37:29;23.38;;;12.77;;
57627;SDS011;43451;49.060;10.616;2022-12-11T08:39:54;25.02;;;12.98;;
57627;SDS011;43451;49.060;10.616;2022-12-11T08:42:20;24.88;;;12.73;;
57627;SDS011;43451;49.060;10.616;2022-12-11T08:44:45;23.88;;;12.80;;
57627;SDS011;43451;49.060;10.616;2022-12-11T08:47:11;22.75;;;11.95;;
57627;SDS011;43451;49.060;10.616;2022-12-11T08:49:36;26.70;;;13.68;;
57627;SDS011;43451;49.060;10.616;2022-12-11T08:52:02;22.85;;;12.68;;
57627;SDS011;43451;49.060;10.616;2022-12-11T08:54:28;24.20;;;12.93;;
57627;SDS011;43451;49.060;10.616;2022-12-11T08:56:54;25.67;;;12.88;;
57627;SDS011;43451;49.060;10.616;2022-12-11T08:59:19;23.65;;;12.85;;
57627;SDS011;43451;49.060;10.616;2022-12-11T09:01:45;25.35;;;12.57;;
57627;SDS011;43451;49.060;10.616;2022-12-11T09:04:10;22.85;;;12.25;;
57627;SDS011;43451;49.060;10.616;2022-12-11T09:06:36;24.63;;;12.68;;
57627;SDS011;43451;49.060;10.616;2022-12-11T09:09:02;22.73;;;12.50;;
57627;SDS011;43451;49.060;10.616;2022-12-11T09:11:30;22.58;;;11.98;;
57627;SDS011;43451;49.060;10.616;2022-12-11T09:13:57;21.50;;;12.05;;
57627;SDS011;43451;49.060;10.616;2022-12-11T09:16:23;20.83;;;11.20;;
57627;SDS011;43451;49.060;10.616;2022-12-11T09:18:51;22.75;;;11.85;;
57627;SDS011;43451;49.060;10.616;2022-12-11T09:21:19;21.13;;;11.65;;
57627;SDS011;43451;49.060;10.616;2022-12-11T09:23:46;25.75;;;12.15;;
57627;SDS011;43451;49.060;10.616;2022-12-11T09:26:13;21.33;;;11.18;;
57627;SDS011;43451;49.060;10.616;2022-12-11T09:28:40;24.20;;;11.77;;
57627;SDS011;43451;49.060;10.616;2022-12-11T09:31:08;20.90;;;10.48;;
57627;SDS011;43451;49.060;10.616;2022-12-11T09:33:45;20.00;;;9.73;;
57627;SDS011;43451;49.060;10.616;2022-12-11T09:36:11;19.17;;;9.68;;
57627;SDS011;43451;49.060;10.616;2022-12-11T09:38:36;19.75;;;9.82;;
57627;SDS011;43451;49.060;10.616;2022-12-11T09:44:01;17.35;;;8.95;;
57627;SDS011;43451;49.060;10.616;2022-12-11T09:46:38;15.02;;;7.82;;
57627;SDS011;43451;49.060;10.616;2022-12-11T09:49:08;17.52;;;8.38;;
57627;SDS011;43451;49.060;10.616;2022-12-11T09:54:44;18.80;;;9.00;;
57627;SDS011;43451;49.060;10.616;2022-12-11T10:08:17;22.27;;;10.27;;
57627;SDS011;43451;49.060;10.616;2022-12-11T10:15:59;21.30;;;9.90;;
57627;SDS011;43451;49.060;10.616;2022-12-11T10:18:36;19.58;;;9.40;;
57627;SDS011;43451;49.060;10.616;2022-12-11T10:21:03;22.70;;;10.48;;
57627;SDS011;43451;49.060;10.616;2022-12-11T10:23:31;22.50;;;10.13;;
57627;SDS011;43451;49.060;10.616;2022-12-11T10:26:06;21.02;;;9.57;;
57627;SDS011;43451;49.060;10.616;2022-12-11T10:28:36;18.75;;;9.68;;
57627;SDS011;43451;49.060;10.616;2022-12-11T10:36:15;18.77;;;8.85;;
57627;SDS011;43451;49.060;10.616;2022-12-11T10:38:44;17.70;;;9.40;;
57627;SDS011;43451;49.060;10.616;2022-12-11T10:41:29;16.55;;;7.88;;
57627;SDS011;43451;49.060;10.616;2022-12-11T10:43:57;19.80;;;9.73;;
57627;SDS011;43451;49.060;10.616;2022-12-11T10:46:25;17.92;;;8.57;;
57627;SDS011;43451;49.060;10.616;2022-12-11T10:54:04;20.35;;;9.63;;
57627;SDS011;43451;49.060;10.616;2022-12-11T10:56:33;18.02;;;9.35;;
57627;SDS011;43451;49.060;10.616;2022-12-11T10:59:01;18.02;;;8.90;;
57627;SDS011;43451;49.060;10.616;2022-12-11T11:01:28;18.60;;;9.43;;
57627;SDS011;43451;49.060;10.616;2022-12-11T11:04:01;18.08;;;9.20;;
57627;SDS011;43451;49.060;10.616;2022-12-11T11:06:30;20.38;;;9.70;;
57627;SDS011;43451;49.060;10.616;2022-12-11T11:08:57;18.38;;;9.23;;
57627;SDS011;43451;49.060;10.616;2022-12-11T11:13:52;22.63;;;9.67;;
57627;SDS011;43451;49.060;10.616;2022-12-11T11:16:30;22.30;;;9.77;;
57627;SDS011;43451;49.060;10.616;2022-12-11T11:18:56;23.88;;;10.55;;
57627;SDS011;43451;49.060;10.616;2022-12-11T11:21:23;20.08;;;9.88;;
57627;SDS011;43451;49.060;10.616;2022-12-11T11:26:17;21.17;;;10.57;;
57627;SDS011;43451;49.060;10.616;2022-12-11T11:28:48;25.52;;;11.15;;
57627;SDS011;43451;49.060;10.616;2022-12-11T11:31:17;20.23;;;10.18;;
57627;SDS011;43451;49.060;10.616;2022-12-11T11:33:58;21.75;;;10.30;;
57627;SDS011;43451;49.060;10.616;2022-12-11T11:36:29;23.95;;;10.93;;
57627;SDS011;43451;49.060;10.616;2022-12-11T11:41:55;20.13;;;9.10;;
57627;SDS011;43451;49.060;10.616;2022-12-11T11:44:29;22.20;;;9.52;;
57627;SDS011;43451;49.060;10.616;2022-12-11T11:47:26;19.40;;;9.55;;
57627;SDS011;43451;49.060;10.616;2022-12-11T11:50:00;20.13;;;10.25;;
57627;SDS011;43451;49.060;10.616;2022-12-11T11:52:33;23.45;;;10.35;;
57627;SDS011;43451;49.060;10.616;2022-12-11T11:58:19;20.20;;;8.75;;
57627;SDS011;43451;49.060;10.616;2022-12-11T12:00:54;20.25;;;9.40;;
57627;SDS011;43451;49.060;10.616;2022-12-11T12:03:20;23.15;;;10.70;;
57627;SDS011;43451;49.060;10.616;2022-12-11T12:05:58;21.20;;;10.02;;
57627;SDS011;43451;49.060;10.616;2022-12-11T12:16:29;21.08;;;10.00;;
57627;SDS011;43451;49.060;10.616;2022-12-11T12:22:27;22.40;;;10.05;;
57627;SDS011;43451;49.060;10.616;2022-12-11T12:36:25;24.17;;;10.80;;
57627;SDS011;43451;49.060;10.616;2022-12-11T12:39:01;24.83;;;11.15;;
57627;SDS011;43451;49.060;10.616;2022-12-11T12:41:52;24.98;;;10.15;;
57627;SDS011;43451;49.060;10.616;2022-12-11T12:44:21;22.73;;;10.98;;
57627;SDS011;43451;49.060;10.616;2022-12-11T12:49:29;24.77;;;10.65;;
57627;SDS011;43451;49.060;10.616;2022-12-11T12:52:00;22.48;;;10.48;;
57627;SDS011;43451;49.060;10.616;2022-12-11T12:54:27;22.95;;;10.25;;
57627;SDS011;43451;49.060;10.616;2022-12-11T12:56:56;24.27;;;11.10;;
57627;SDS011;43451;49.060;10.616;2022-12-11T12:59:23;22.63;;;10.07;;
57627;SDS011;43451;49.060;10.616;2022-12-11T13:01:54;23.02;;;11.10;;
57627;SDS011;43451;49.060;10.616;2022-12-11T13:04:35;23.13;;;10.48;;
57627;SDS011;43451;49.060;10.616;2022-12-11T13:09:54;21.23;;;10.25;;
57627;SDS011;43451;49.060;10.616;2022-12-11T13:12:28;22.38;;;10.23;;
57627;SDS011;43451;49.060;10.616;2022-12-11T13:15:04;21.25;;;10.73;;
57627;SDS011;43451;49.060;10.616;2022-12-11T13:17:46;21.10;;;10.50;;
57627;SDS011;43451;49.060;10.616;2022-12-11T13:20:14;23.70;;;10.75;;
57627;SDS011;43451;49.060;10.616;2022-12-11T13:25:50;21.42;;;10.63;;
57627;SDS011;43451;49.060;10.616;2022-12-11T13:28:23;24.48;;;11.70;;
57627;SDS011;43451;49.060;10.616;2022-12-11T13:31:24;23.63;;;11.05;;
57627;SDS011;43451;49.060;10.616;2022-12-11T13:33:53;19.50;;;9.32;;
57627;SDS011;43451;49.060;10.616;2022-12-11T13:36:31;20.63;;;9.65;;
57627;SDS011;43451;49.060;10.616;2022-12-11T13:41:28;19.20;;;9.50;;
57627;SDS011;43451;49.060;10.616;2022-12-11T13:43:57;19.75;;;9.43;;
57627;SDS011;43451;49.060;10.616;2022-12-11T13:46:23;18.70;;;9.77;;
57627;SDS011;43451;49.060;10.616;2022-12-11T13:48:54;19.35;;;10.18;;
57627;SDS011;43451;49.060;10.616;2022-12-11T13:51:26;18.90;;;9.95;;
57627;SDS011;43451;49.060;10.616;2022-12-11T13:54:03;19.65;;;9.93;;
57627;SDS011;43451;49.060;10.616;2022-12-11T13:56:51;18.88;;;9.93;;
57627;SDS011;43451;49.060;10.616;2022-12-11T13:59:28;20.38;;;10.43;;
57627;SDS011;43451;49.060;10.616;2022-12-11T14:01:57;19.27;;;9.80;;
57627;SDS011;43451;49.060;10.616;2022-12-11T14:04:27;19.63;;;9.68;;
57627;SDS011;43451;49.060;10.616;2022-12-11T14:06:53;19.63;;;9.88;;
57627;SDS011;43451;49.060;10.616;2022-12-11T14:09:21;17.85;;;9.38;;
57627;SDS011;43451;49.060;10.616;2022-12-11T14:11:50;22.88;;;11.05;;
57627;SDS011;43451;49.060;10.616;2022-12-11T14:14:20;23.00;;;11.65;;
57627;SDS011;43451;49.060;10.616;2022-12-11T14:16:51;22.00;;;11.35;;
57627;SDS011;43451;49.060;10.616;2022-12-11T14:19:18;25.70;;;13.13;;
57627;SDS011;43451;49.060;10.616;2022-12-11T14:22:02;25.25;;;12.40;;
57627;SDS011;43451;49.060;10.616;2022-12-11T14:24:29;24.02;;;11.77;;
57627;SDS011;43451;49.060;10.616;2022-12-11T14:26:55;23.05;;;11.93;;
57627;SDS011;43451;49.060;10.616;2022-12-11T14:29:25;24.63;;;11.88;;
57627;SDS011;43451;49.060;10.616;2022-12-11T14:31:57;25.40;;;12.25;;
57627;SDS011;43451;49.060;10.616;2022-12-11T14:34:31;25.42;;;12.05;;
57627;SDS011;43451;49.060;10.616;2022-12-11T14:37:01;22.63;;;11.20;;
57627;SDS011;43451;49.060;10.616;2022-12-11T14:39:37;21.92;;;11.13;;
57627;SDS011;43451;49.060;10.616;2022-12-11T14:42:14;23.05;;;10.95;;
57627;SDS011;43451;49.060;10.616;2022-12-11T14:44:48;21.15;;;10.88;;
57627;SDS011;43451;49.060;10.616;2022-12-11T14:47:26;22.35;;;11.15;;
57627;SDS011;43451;49.060;10.616;2022-12-11T14:52:45;22.73;;;11.40;;
57627;SDS011;43451;49.060;10.616;2022-12-11T14:55:17;25.83;;;12.40;;
57627;SDS011;43451;49.060;10.616;2022-12-11T14:57:46;24.90;;;12.35;;
57627;SDS011;43451;49.060;10.616;2022-12-11T15:00:26;23.98;;;11.68;;
57627;SDS011;43451;49.060;10.616;2022-12-11T15:02:59;24.23;;;12.27;;
57627;SDS011;43451;49.060;10.616;2022-12-11T15:05:27;28.42;;;12.50;;
57627;SDS011;43451;49.060;10.616;2022-12-11T15:08:14;27.80;;;12.95;;
57627;SDS011;43451;49.060;10.616;2022-12-11T15:10:58;25.33;;;12.18;;
57627;SDS011;43451;49.060;10.616;2022-12-11T15:13:25;27.10;;;12.40;;
57627;SDS011;43451;49.060;10.616;2022-12-11T15:15:50;25.60;;;12.88;;
57627;SDS011;43451;49.060;10.616;2022-12-11T15:18:26;26.95;;;12.95;;
57627;SDS011;43451;49.060;10.616;2022-12-11T15:20:55;26.48;;;12.45;;
57627;SDS011;43451;49.060;10.616;2022-12-11T15:23:23;25.88;;;12.25;;
57627;SDS011;43451;49.060;10.616;2022-12-11T15:25:54;26.90;;;12.77;;
57627;SDS011;43451;49.060;10.616;2022-12-11T15:28:32;27.10;;;12.45;;
57627;SDS011;43451;49.060;10.616;2022-12-11T15:33:30;24.98;;;11.63;;
57627;SDS011;43451;49.060;10.616;2022-12-11T15:36:03;27.00;;;12.68;;
57627;SDS011;43451;49.060;10.616;2022-12-11T15:41:05;24.77;;;12.00;;
57627;SDS011;43451;49.060;10.616;2022-12-11T15:43:35;26.98;;;12.80;;
57627;SDS011;43451;49.060;10.616;2022-12-11T15:46:02;27.90;;;13.05;;
57627;SDS011;43451;49.060;10.616;2022-12-11T15:48:28;29.42;;;12.65;;
57627;SDS011;43451;49.060;10.616;2022-12-11T15:50:54;28.27;;;13.52;;
57627;SDS011;43451;49.060;10.616;2022-12-11T15:53:19;28.15;;;13.80;;
57627;SDS011;43451;49.060;10.616;2022-12-11T15:55:45;26.05;;;12.48;;
57627;SDS011;43451;49.060;10.616;2022-12-11T15:58:12;30.30;;;14.35;;
57627;SDS011;43451;49.060;10.616;2022-12-11T16:00:41;28.85;;;13.38;;
57627;SDS011;43451;49.060;10.616;2022-12-11T16:03:08;30.48;;;13.68;;
57627;SDS011;43451;49.060;10.616;2022-12-11T16:05:38;27.25;;;13.05;;
57627;SDS011;43451;49.060;10.616;2022-12-11T16:08:03;30.33;;;14.02;;
57627;SDS011;43451;49.060;10.616;2022-12-11T16:10:29;27.50;;;12.82;;